RJFY(METAR)
12/04 19:00
METAR RJFY 041000Z 07006KT 9999 FEW015 BKN030 BKN080 15/12 Q1020 RMK
1CU015 5CU030 7AC080 A3012=
戻る
トップページへ戻る
IMOC Co,.Ltd.